createdAt,value
2018-10-02T00:00:37.384Z,3.37
2018-10-02T00:03:06.920Z,3.13
2018-10-02T00:05:36.226Z,3.10
2018-10-02T00:08:05.624Z,2.97
2018-10-02T00:10:36.004Z,3.23
2018-10-02T00:13:10.559Z,3.03
2018-10-02T00:15:39.868Z,3.30
2018-10-02T00:18:09.070Z,3.00
2018-10-02T00:20:38.131Z,2.97
2018-10-02T00:23:07.258Z,2.90
2018-10-02T00:25:36.576Z,3.27
2018-10-02T00:28:05.806Z,3.10
2018-10-02T00:30:34.942Z,3.20
2018-10-02T00:33:04.191Z,2.70
2018-10-02T00:35:34.048Z,3.13
2018-10-02T00:38:03.348Z,3.20
2018-10-02T00:40:32.466Z,3.37
2018-10-02T00:43:01.770Z,3.07
2018-10-02T00:45:30.816Z,3.30
2018-10-02T00:48:01.289Z,3.03
2018-10-02T00:50:30.360Z,3.00
2018-10-02T00:53:01.024Z,3.53
2018-10-02T00:55:30.127Z,3.53
2018-10-02T00:57:59.218Z,3.40
2018-10-02T01:00:28.366Z,3.30
2018-10-02T01:02:57.506Z,3.43
2018-10-02T01:05:26.725Z,3.30
2018-10-02T01:07:55.805Z,3.27
2018-10-02T01:10:26.430Z,3.47
2018-10-02T01:12:56.547Z,3.80
2018-10-02T01:15:25.882Z,3.33
2018-10-02T01:17:57.833Z,3.93
2018-10-02T01:20:27.627Z,3.37
2018-10-02T01:22:57.569Z,3.60
2018-10-02T01:25:26.689Z,3.40
2018-10-02T01:27:55.893Z,3.50
2018-10-02T01:30:25.140Z,3.97
2018-10-02T01:32:55.857Z,3.50
2018-10-02T01:35:26.772Z,3.13
2018-10-02T01:37:55.900Z,3.60
2018-10-02T01:40:24.967Z,3.47
2018-10-02T01:42:54.228Z,3.40
2018-10-02T01:45:23.952Z,2.90
2018-10-02T01:47:53.347Z,3.83
2018-10-02T01:50:22.525Z,3.93
2018-10-02T01:52:52.229Z,3.10
2018-10-02T01:55:21.320Z,3.17
2018-10-02T01:57:51.639Z,3.80
2018-10-02T02:00:21.031Z,3.47
2018-10-02T02:02:50.362Z,3.67
2018-10-02T02:05:20.877Z,3.03
2018-10-02T02:07:50.077Z,3.67
2018-10-02T02:10:19.225Z,3.40
2018-10-02T02:12:48.432Z,3.67
2018-10-02T02:15:18.998Z,3.57
2018-10-02T02:17:48.699Z,3.50
2018-10-02T02:20:17.876Z,3.70
2018-10-02T02:22:47.002Z,3.40
2018-10-02T02:25:16.134Z,3.53
2018-10-02T02:27:47.276Z,3.63
2018-10-02T02:30:16.434Z,3.50
2018-10-02T02:32:47.064Z,3.20
2018-10-02T02:35:16.237Z,4.00
2018-10-02T02:37:46.626Z,3.60
2018-10-02T02:40:16.030Z,3.93
2018-10-02T02:42:46.487Z,3.60
2018-10-02T02:45:17.391Z,3.30
2018-10-02T02:47:52.096Z,3.13
2018-10-02T02:50:27.340Z,3.47
2018-10-02T02:52:58.830Z,3.40
2018-10-02T02:55:28.862Z,3.00
2018-10-02T02:57:59.320Z,3.10
2018-10-02T03:00:28.633Z,3.13
2018-10-02T03:03:00.144Z,3.33
2018-10-02T03:05:29.210Z,2.90
2018-10-02T03:07:59.720Z,3.00
2018-10-02T03:10:28.893Z,2.70
2018-10-02T03:12:58.064Z,3.17
2018-10-02T03:15:27.195Z,2.67
2018-10-02T03:17:59.011Z,2.97
2018-10-02T03:20:28.732Z,2.67
2018-10-02T03:22:58.025Z,2.60
2018-10-02T03:25:27.563Z,2.43
2018-10-02T03:27:56.870Z,2.40
2018-10-02T03:30:26.014Z,2.60
2018-10-02T03:32:55.168Z,2.20
2018-10-02T03:35:26.929Z,2.53
2018-10-02T03:37:56.599Z,2.40
2018-10-02T03:40:27.369Z,2.40
2018-10-02T03:42:56.525Z,2.57
2018-10-02T03:45:26.407Z,2.50
2018-10-02T03:47:55.574Z,2.90
2018-10-02T03:50:26.788Z,2.87
2018-10-02T03:52:55.978Z,3.40
2018-10-02T03:55:25.443Z,3.00
2018-10-02T03:57:54.478Z,3.33
2018-10-02T04:00:25.487Z,3.13
2018-10-02T04:02:54.543Z,3.00
2018-10-02T04:05:23.788Z,3.33
2018-10-02T04:07:53.166Z,2.90
2018-10-02T04:10:22.310Z,2.77
2018-10-02T04:12:51.469Z,3.10
2018-10-02T04:15:20.557Z,3.00
2018-10-02T04:17:51.456Z,3.20
2018-10-02T04:20:20.801Z,3.10
2018-10-02T04:22:49.901Z,3.00
2018-10-02T04:25:19.211Z,2.70
2018-10-02T04:27:48.780Z,2.57
2018-10-02T04:30:18.727Z,2.70
2018-10-02T04:32:47.897Z,2.80
2018-10-02T04:35:16.967Z,3.03
2018-10-02T04:37:47.639Z,2.80
2018-10-02T04:40:17.545Z,2.70
2018-10-02T04:42:46.767Z,2.67
2018-10-02T04:45:16.359Z,2.50
2018-10-02T04:47:45.677Z,2.73
2018-10-02T04:50:14.925Z,2.47
2018-10-02T04:52:44.179Z,3.00
2018-10-02T04:55:15.190Z,2.83
2018-10-02T04:57:44.263Z,3.00
2018-10-02T05:00:13.654Z,2.97
2018-10-02T05:02:43.190Z,2.73
2018-10-02T05:05:12.346Z,2.63
2018-10-02T05:07:41.628Z,2.90
2018-10-02T05:10:11.158Z,2.40
2018-10-02T05:12:40.266Z,2.10
2018-10-02T05:15:09.928Z,2.50
2018-10-02T05:17:39.047Z,2.37
2018-10-02T05:20:08.389Z,2.73
2018-10-02T05:22:37.651Z,2.27
2018-10-02T05:25:07.487Z,2.50
2018-10-02T05:27:36.763Z,2.30
2018-10-02T05:30:05.887Z,2.40
2018-10-02T05:32:35.148Z,2.17
2018-10-02T05:35:04.729Z,2.40
2018-10-02T05:37:33.725Z,2.20
2018-10-02T05:40:03.121Z,2.10
2018-10-02T05:42:32.586Z,2.20
2018-10-02T05:45:01.857Z,2.53
2018-10-02T05:47:31.140Z,2.50
2018-10-02T05:50:00.359Z,2.40
2018-10-02T05:52:29.522Z,2.13
2018-10-02T05:54:58.608Z,2.70
2018-10-02T05:57:27.867Z,2.60
2018-10-02T05:59:57.030Z,2.30
2018-10-02T06:02:29.235Z,2.80
2018-10-02T06:04:58.424Z,2.70
2018-10-02T06:07:27.910Z,2.20
2018-10-02T06:09:57.998Z,2.47
2018-10-02T06:12:27.221Z,2.33
2018-10-02T06:14:56.665Z,2.50
2018-10-02T06:17:25.912Z,3.00
2018-10-02T06:19:56.169Z,2.47
2018-10-02T06:22:25.536Z,2.70
2018-10-02T06:24:54.732Z,2.50
2018-10-02T06:27:23.788Z,2.87
2018-10-02T06:29:53.017Z,2.77
2018-10-02T06:32:22.284Z,2.90
2018-10-02T06:34:51.426Z,2.80
2018-10-02T06:37:20.510Z,2.77
2018-10-02T06:39:49.632Z,3.20
2018-10-02T06:42:18.797Z,2.80
2018-10-02T06:44:48.011Z,2.93
2018-10-02T06:47:17.169Z,2.77
2018-10-02T06:49:46.341Z,2.97
2018-10-02T06:52:15.743Z,3.20
2018-10-02T06:54:44.702Z,2.90
2018-10-02T06:57:13.999Z,3.03
2018-10-02T06:59:43.192Z,3.07
2018-10-02T07:02:12.733Z,3.00
2018-10-02T07:04:43.041Z,3.47
2018-10-02T07:07:12.187Z,2.77
2018-10-02T07:09:41.354Z,3.30
2018-10-02T07:12:10.620Z,3.07
2018-10-02T07:14:39.843Z,3.10
2018-10-02T07:17:08.860Z,2.90
2018-10-02T07:19:38.594Z,3.23
2018-10-02T07:22:07.673Z,3.00
2018-10-02T07:24:36.845Z,3.20
2018-10-02T07:27:06.749Z,2.90
2018-10-02T07:29:35.710Z,3.03
2018-10-02T07:32:04.951Z,4.20
2018-10-02T07:34:34.457Z,3.90
2018-10-02T07:37:03.678Z,4.67
2018-10-02T07:39:33.130Z,3.97
2018-10-02T07:42:02.382Z,3.10
2018-10-02T07:44:31.480Z,3.60
2018-10-02T07:47:00.688Z,3.73
2018-10-02T07:49:29.846Z,3.53
2018-10-02T07:51:59.694Z,4.10
2018-10-02T07:54:28.944Z,3.53
2018-10-02T07:56:58.212Z,3.67
2018-10-02T07:59:27.451Z,3.30
2018-10-02T08:01:56.604Z,3.60
2018-10-02T08:04:25.855Z,4.20
2018-10-02T08:06:55.138Z,4.47
2018-10-02T08:09:24.344Z,3.87
2018-10-02T08:11:53.566Z,4.53
2018-10-02T08:14:22.679Z,4.20
2018-10-02T08:16:52.712Z,4.30
2018-10-02T08:19:21.904Z,4.77
2018-10-02T08:21:51.174Z,4.50
2018-10-02T08:24:20.277Z,4.30
2018-10-02T08:26:49.331Z,4.20
2018-10-02T08:29:18.760Z,4.13
2018-10-02T08:31:48.172Z,3.47
2018-10-02T08:34:17.489Z,3.70
2018-10-02T08:36:46.627Z,3.63
2018-10-02T08:39:15.807Z,4.67
2018-10-02T08:41:44.883Z,4.90
2018-10-02T08:44:14.087Z,4.03
2018-10-02T08:46:43.225Z,4.37
2018-10-02T08:49:12.554Z,5.23
2018-10-02T08:51:41.775Z,4.90
2018-10-02T08:54:10.940Z,5.00
2018-10-02T08:56:40.093Z,5.40
2018-10-02T08:59:09.345Z,5.97
2018-10-02T09:01:38.893Z,6.07
2018-10-02T09:04:08.117Z,6.03
2018-10-02T09:06:37.744Z,6.13
2018-10-02T09:09:09.725Z,6.17
2018-10-02T09:11:39.036Z,6.63
2018-10-02T09:14:08.416Z,7.73
2018-10-02T09:16:37.738Z,11.57
2018-10-02T09:19:07.513Z,10.13
2018-10-02T09:21:37.032Z,7.30
2018-10-02T09:24:06.795Z,7.07
2018-10-02T09:26:36.435Z,10.40
2018-10-02T09:29:05.962Z,8.37
2018-10-02T09:31:40.536Z,7.47
2018-10-02T09:34:15.048Z,7.97
2018-10-02T09:36:49.619Z,7.80
2018-10-02T09:39:24.006Z,8.23
2018-10-02T09:41:58.520Z,7.50
2018-10-02T09:44:27.592Z,6.37
2018-10-02T09:46:57.120Z,6.23
2018-10-02T09:49:26.659Z,6.07
2018-10-02T09:51:56.573Z,5.77
2018-10-02T09:54:25.892Z,6.10
2018-10-02T09:56:55.202Z,5.80
2018-10-02T09:59:24.512Z,5.50
2018-10-02T10:01:58.899Z,5.03
2018-10-02T10:04:27.946Z,4.20
2018-10-02T10:06:57.408Z,4.30
2018-10-02T10:09:26.697Z,4.20
2018-10-02T10:11:55.908Z,4.83
2018-10-02T10:14:25.057Z,4.93
2018-10-02T10:16:54.281Z,4.63
2018-10-02T10:19:23.425Z,4.70
2018-10-02T10:21:53.210Z,4.53
2018-10-02T10:24:22.385Z,4.63
2018-10-02T10:26:51.529Z,4.73
2018-10-02T10:29:21.437Z,4.87
2018-10-02T10:31:50.592Z,5.00
2018-10-02T10:34:19.970Z,5.03
2018-10-02T10:36:49.102Z,5.30
2018-10-02T10:39:18.844Z,5.43
2018-10-02T10:41:48.059Z,5.40
2018-10-02T10:44:17.240Z,5.50
2018-10-02T10:46:46.460Z,5.60
2018-10-02T10:49:15.641Z,5.80
2018-10-02T10:51:44.659Z,5.00
2018-10-02T10:54:13.783Z,5.93
2018-10-02T10:56:43.175Z,6.40
2018-10-02T10:59:12.713Z,5.93
2018-10-02T11:01:42.299Z,6.20
2018-10-02T11:04:12.130Z,6.30
2018-10-02T11:06:41.855Z,6.33
2018-10-02T11:09:11.691Z,6.17
2018-10-02T11:11:40.881Z,6.57
2018-10-02T11:14:09.949Z,6.63
2018-10-02T11:16:39.316Z,7.50
2018-10-02T11:19:08.572Z,6.97
2018-10-02T11:21:37.799Z,7.60
2018-10-02T11:24:07.159Z,8.00
2018-10-02T11:26:36.971Z,8.43
2018-10-02T11:29:06.118Z,8.60
2018-10-02T11:31:35.301Z,9.10
2018-10-02T11:34:04.755Z,8.77
2018-10-02T11:36:33.960Z,9.40
2018-10-02T11:39:03.931Z,8.70
2018-10-02T11:41:33.102Z,8.80
2018-10-02T11:44:02.417Z,8.47
2018-10-02T11:46:31.601Z,9.13
2018-10-02T11:49:00.845Z,8.83
2018-10-02T11:51:30.072Z,8.87
2018-10-02T11:53:59.300Z,8.00
2018-10-02T11:56:28.433Z,8.57
2018-10-02T11:58:57.492Z,8.30
2018-10-02T12:01:27.076Z,8.13
2018-10-02T12:03:56.085Z,8.80
2018-10-02T12:06:25.181Z,8.87
2018-10-02T12:08:54.512Z,9.43
2018-10-02T12:11:23.756Z,8.97
2018-10-02T12:13:52.989Z,9.13
2018-10-02T12:16:21.988Z,9.67
2018-10-02T12:18:51.143Z,10.47
2018-10-02T12:21:20.568Z,10.57
2018-10-02T12:23:49.706Z,10.23
2018-10-02T12:26:19.159Z,11.00
2018-10-02T12:28:49.195Z,10.23
2018-10-02T12:31:18.568Z,10.07
2018-10-02T12:33:47.912Z,10.60
2018-10-02T12:36:17.330Z,9.33
2018-10-02T12:38:51.544Z,9.83
2018-10-02T12:41:20.701Z,8.87
2018-10-02T12:43:50.862Z,9.70
2018-10-02T12:46:20.330Z,9.33
2018-10-02T12:48:49.426Z,8.57
2018-10-02T12:51:18.776Z,8.50
2018-10-02T12:53:47.963Z,7.97
2018-10-02T12:56:17.640Z,8.43
2018-10-02T12:58:46.989Z,8.30
2018-10-02T13:01:17.090Z,7.37
2018-10-02T13:03:46.842Z,8.40
2018-10-02T13:06:16.173Z,7.57
2018-10-02T13:08:45.276Z,7.43
2018-10-02T13:11:14.471Z,7.30
2018-10-02T13:13:43.773Z,7.83
2018-10-02T13:16:13.223Z,7.80
2018-10-02T13:18:42.311Z,6.83
2018-10-02T13:21:11.576Z,7.27
2018-10-02T13:23:48.376Z,7.23
2018-10-02T13:26:17.442Z,7.60
2018-10-02T13:28:46.656Z,7.60
2018-10-02T13:31:15.838Z,6.97
2018-10-02T13:33:44.906Z,7.30
2018-10-02T13:36:14.031Z,6.87
2018-10-02T13:38:43.759Z,6.37
2018-10-02T13:41:12.865Z,6.73
2018-10-02T13:43:42.033Z,6.87
2018-10-02T13:46:11.366Z,6.33
2018-10-02T13:48:40.549Z,6.60
2018-10-02T13:51:09.735Z,6.77
2018-10-02T13:53:39.349Z,6.20
2018-10-02T13:56:08.630Z,6.17
2018-10-02T13:58:38.555Z,6.37
2018-10-02T14:01:07.836Z,6.17
2018-10-02T14:03:37.163Z,6.20
2018-10-02T14:06:06.393Z,6.40
2018-10-02T14:08:35.544Z,6.70
2018-10-02T14:11:06.212Z,6.20
2018-10-02T14:13:35.788Z,7.07
2018-10-02T14:16:04.962Z,7.03
2018-10-02T14:18:34.148Z,6.33
2018-10-02T14:21:03.285Z,6.10
2018-10-02T14:23:33.739Z,6.30
2018-10-02T14:26:03.755Z,5.03
2018-10-02T14:28:32.920Z,4.33
2018-10-02T14:31:02.013Z,3.63
2018-10-02T14:33:31.121Z,3.60
2018-10-02T14:36:00.205Z,3.33
2018-10-02T14:38:30.497Z,2.90
2018-10-02T14:41:00.034Z,2.97
2018-10-02T14:43:29.216Z,3.57
2018-10-02T14:45:58.546Z,3.13
2018-10-02T14:48:28.060Z,3.13
2018-10-02T14:50:57.178Z,3.13
2018-10-02T14:53:26.443Z,3.17
2018-10-02T14:55:55.863Z,3.73
2018-10-02T14:58:26.840Z,3.07
2018-10-02T15:00:56.157Z,3.23
2018-10-02T15:03:26.005Z,3.23
2018-10-02T15:05:55.183Z,3.07
2018-10-02T15:08:24.469Z,2.80
2018-10-02T15:10:54.392Z,3.40
2018-10-02T15:13:23.549Z,3.00
2018-10-02T15:15:52.701Z,3.17
2018-10-02T15:18:22.014Z,3.03
2018-10-02T15:20:51.082Z,2.90
2018-10-02T15:23:20.419Z,2.43
2018-10-02T15:25:50.933Z,2.47
2018-10-02T15:28:20.247Z,2.50
2018-10-02T15:30:49.439Z,2.50
2018-10-02T15:33:18.526Z,2.60
2018-10-02T15:35:47.835Z,2.30
2018-10-02T15:38:17.120Z,2.60
2018-10-02T15:40:46.322Z,2.20
2018-10-02T15:43:15.448Z,2.63
2018-10-02T15:45:44.698Z,2.90
2018-10-02T15:48:14.054Z,2.90
2018-10-02T15:50:43.150Z,2.90
2018-10-02T15:53:12.588Z,3.50
2018-10-02T15:55:42.241Z,3.23
2018-10-02T15:58:11.606Z,3.27
2018-10-02T16:00:40.684Z,2.80
2018-10-02T16:03:09.968Z,3.30
2018-10-02T16:05:39.145Z,2.93
2018-10-02T16:08:08.375Z,3.63
2018-10-02T16:10:37.520Z,3.40
2018-10-02T16:13:06.943Z,3.33
2018-10-02T16:15:36.089Z,3.37
2018-10-02T16:18:05.331Z,3.60
2018-10-02T16:20:34.533Z,3.80
2018-10-02T16:23:04.849Z,3.90
2018-10-02T16:25:34.092Z,3.83
2018-10-02T16:28:03.176Z,3.97
2018-10-02T16:30:33.854Z,3.80
2018-10-02T16:33:03.319Z,4.03
2018-10-02T16:35:32.395Z,4.63
2018-10-02T16:38:01.554Z,3.37
2018-10-02T16:40:30.734Z,4.23
2018-10-02T16:42:59.892Z,3.80
2018-10-02T16:45:31.071Z,4.10
2018-10-02T16:48:00.444Z,3.90
2018-10-02T16:50:31.524Z,3.80
2018-10-02T16:53:01.097Z,4.20
2018-10-02T16:55:30.153Z,4.13
2018-10-02T16:57:59.353Z,4.20
2018-10-02T17:00:29.228Z,4.40
2018-10-02T17:02:58.452Z,4.80
2018-10-02T17:05:27.621Z,5.17
2018-10-02T17:07:56.756Z,4.50
2018-10-02T17:10:27.401Z,4.77
2018-10-02T17:12:56.879Z,5.00
2018-10-02T17:15:26.239Z,5.00
2018-10-02T17:17:55.389Z,5.17
2018-10-02T17:20:24.722Z,5.00
2018-10-02T17:22:53.891Z,5.50
2018-10-02T17:25:23.410Z,5.87
2018-10-02T17:27:52.589Z,5.23
2018-10-02T17:30:21.945Z,5.57
2018-10-02T17:32:51.349Z,5.60
2018-10-02T17:35:21.242Z,5.60
2018-10-02T17:37:50.535Z,6.27
2018-10-02T17:40:19.872Z,6.20
2018-10-02T17:42:49.432Z,5.77
2018-10-02T17:45:18.962Z,6.70
2018-10-02T17:47:48.229Z,6.50
2018-10-02T17:50:17.513Z,6.30
2018-10-02T17:52:46.986Z,6.83
2018-10-02T17:55:23.154Z,8.03
2018-10-02T17:57:52.656Z,8.13
2018-10-02T18:00:22.033Z,8.50
2018-10-02T18:02:52.203Z,8.70
2018-10-02T18:05:21.282Z,7.37
2018-10-02T18:07:51.311Z,7.57
2018-10-02T18:10:20.544Z,7.73
2018-10-02T18:12:49.643Z,8.90
2018-10-02T18:15:18.796Z,7.97
2018-10-02T18:17:48.829Z,8.57
2018-10-02T18:20:18.230Z,8.50
2018-10-02T18:22:49.258Z,8.83
2018-10-02T18:25:18.766Z,8.70
2018-10-02T18:27:48.460Z,8.77
2018-10-02T18:30:19.553Z,7.70
2018-10-02T18:32:48.790Z,7.97
2018-10-02T18:35:18.005Z,7.90
2018-10-02T18:37:48.797Z,7.67
2018-10-02T18:40:18.165Z,7.87
2018-10-02T18:42:47.457Z,8.30
2018-10-02T18:45:16.691Z,9.13
2018-10-02T18:47:46.366Z,9.13
2018-10-02T18:50:15.477Z,8.33
2018-10-02T18:52:45.409Z,8.10
2018-10-02T18:55:14.665Z,8.57
2018-10-02T18:57:44.223Z,8.03
2018-10-02T19:00:13.708Z,7.90
2018-10-02T19:02:43.023Z,8.47
2018-10-02T19:05:12.195Z,8.97
2018-10-02T19:07:41.465Z,9.20
2018-10-02T19:10:10.672Z,8.20
2018-10-02T19:12:39.847Z,8.53
2018-10-02T19:15:08.966Z,9.30
2018-10-02T19:17:38.625Z,8.60
2018-10-02T19:20:14.932Z,8.63
2018-10-02T19:22:44.801Z,8.30
2018-10-02T19:25:19.975Z,8.23
2018-10-02T19:27:49.464Z,8.30
2018-10-02T19:30:25.479Z,8.50
2018-10-02T19:32:54.798Z,8.40
2018-10-02T19:35:23.971Z,8.97
2018-10-02T19:37:58.448Z,8.90
2018-10-02T19:40:27.556Z,9.00
2018-10-02T19:42:56.836Z,8.97
2018-10-02T19:45:31.610Z,9.17
2018-10-02T19:48:01.805Z,9.13
2018-10-02T19:50:31.585Z,9.70
2018-10-02T19:53:00.955Z,9.70
2018-10-02T19:55:30.085Z,9.73
2018-10-02T19:58:00.189Z,9.60
2018-10-02T20:00:29.989Z,9.77
2018-10-02T20:03:01.199Z,9.60
2018-10-02T20:05:31.075Z,9.73
2018-10-02T20:08:00.159Z,9.40
2018-10-02T20:10:29.334Z,10.30
2018-10-02T20:12:58.504Z,10.23
2018-10-02T20:15:27.762Z,10.17
2018-10-02T20:17:56.967Z,11.43
2018-10-02T20:20:26.709Z,10.23
2018-10-02T20:22:56.456Z,10.63
2018-10-02T20:25:25.676Z,11.20
2018-10-02T20:27:54.757Z,11.70
2018-10-02T20:30:24.105Z,12.00
2018-10-02T20:32:53.341Z,12.47
2018-10-02T20:35:22.648Z,12.10
2018-10-02T20:37:52.230Z,11.43
2018-10-02T20:40:21.488Z,11.70
2018-10-02T20:42:51.187Z,12.93
2018-10-02T20:45:20.294Z,13.03
2018-10-02T20:47:49.374Z,12.43
2018-10-02T20:50:18.460Z,14.87
2018-10-02T20:52:47.814Z,15.33
2018-10-02T20:55:17.205Z,17.40
2018-10-02T20:57:47.864Z,18.23
2018-10-02T21:00:17.494Z,17.53
2018-10-02T21:02:48.015Z,18.30
2018-10-02T21:05:17.225Z,17.77
2018-10-02T21:07:46.561Z,16.97
2018-10-02T21:10:15.911Z,15.33
2018-10-02T21:12:45.133Z,14.80
2018-10-02T21:15:15.385Z,14.37
2018-10-02T21:17:44.602Z,14.27
2018-10-02T21:20:14.028Z,13.27
2018-10-02T21:22:43.359Z,12.97
2018-10-02T21:25:13.721Z,12.83
2018-10-02T21:27:44.548Z,12.27
2018-10-02T21:30:13.828Z,12.10
2018-10-02T21:32:43.042Z,11.30
2018-10-02T21:35:12.267Z,12.23
2018-10-02T21:37:41.647Z,11.00
2018-10-02T21:40:10.962Z,10.70
2018-10-02T21:42:40.027Z,10.50
2018-10-02T21:45:10.148Z,11.07
2018-10-02T21:47:44.702Z,10.43
2018-10-02T21:50:14.027Z,10.93
2018-10-02T21:52:44.118Z,10.73
2018-10-02T21:55:13.368Z,10.63
2018-10-02T21:57:42.495Z,9.97
2018-10-02T22:00:11.939Z,9.17
2018-10-02T22:02:41.101Z,9.60
2018-10-02T22:05:10.285Z,8.73
2018-10-02T22:07:39.432Z,8.57
2018-10-02T22:10:09.314Z,8.13
2018-10-02T22:12:39.768Z,7.80
2018-10-02T22:15:09.202Z,8.43
2018-10-02T22:17:38.388Z,8.50
2018-10-02T22:20:07.541Z,9.53
2018-10-02T22:22:37.035Z,9.00
2018-10-02T22:25:06.255Z,8.03
2018-10-02T22:27:36.233Z,7.90
2018-10-02T22:30:08.256Z,7.97
2018-10-02T22:32:37.514Z,8.10
2018-10-02T22:35:07.377Z,7.83
2018-10-02T22:37:36.747Z,8.43
2018-10-02T22:40:06.106Z,8.33
2018-10-02T22:42:35.753Z,8.00
2018-10-02T22:45:04.943Z,8.83
2018-10-02T22:47:35.266Z,8.07
2018-10-02T22:50:05.551Z,8.40
2018-10-02T22:52:34.692Z,8.80
2018-10-02T22:55:04.356Z,8.40
2018-10-02T22:57:33.704Z,8.47
2018-10-02T23:00:03.902Z,9.00
2018-10-02T23:02:33.652Z,8.70
2018-10-02T23:05:02.900Z,8.60
2018-10-02T23:07:34.093Z,9.20
2018-10-02T23:10:04.027Z,8.23
2018-10-02T23:12:33.193Z,8.80
2018-10-02T23:15:02.331Z,8.33
2018-10-02T23:17:32.380Z,8.50
2018-10-02T23:20:01.577Z,8.37
2018-10-02T23:22:30.759Z,8.77
2018-10-02T23:24:59.872Z,7.73
2018-10-02T23:27:33.023Z,7.93
2018-10-02T23:30:04.523Z,7.80
2018-10-02T23:32:33.694Z,7.20
2018-10-02T23:35:02.953Z,6.63
2018-10-02T23:37:32.070Z,6.70
2018-10-02T23:40:01.229Z,6.50
2018-10-02T23:42:30.421Z,6.70
2018-10-02T23:45:00.956Z,6.70
2018-10-02T23:47:30.952Z,6.30
2018-10-02T23:50:00.036Z,6.10
2018-10-02T23:52:29.399Z,6.40
2018-10-02T23:54:58.804Z,6.60
2018-10-02T23:57:28.026Z,6.33
2018-10-02T23:59:57.284Z,6.10
